Bel Air Beach, Iowa
Current Conditions -  °F | °C
As of 8:55 PM on Tuesday 21 Oct 2014 (Local Time) from KSLB Reporting Station
Clear Clear  
Wind Chill: 54°   Ceiling: Unl
Heat Index: 54°   Visibility: 10mi
Dew Point: 43°   Wind: 13mph
Humidity: 67%   Direction: 140°SE
Pressure: 30.1"   Gusts: NA
Location:  42.674°N, 95.1635°W
Report Text: KSLB 220155Z AUTO 14011KT 10SM CLR 12/06 A3010 RMK AO2
Loading
Personal Weather Stations






























Interactive Weather Map
Tropical Storm Tracking
New forecast layout! Learn more

10-Day Weather Forecast

Advertisements
Track Severe Weather on mobile